Time;durP1;ratioP1;P1;durP2;ratioP2;P2;SDS_P1;SDS_P2;PMS_P1;PMS_P2;Temp;Humidity;BMP_temperature;BMP_pressure;BME280_temperature;BME280_humidity;BME280_pressure;Samples;Min_cycle;Max_cycle;Signal;HPM_P1;HPM_P2
2021/04/25 00:00:43;;;;;;;;;;;7.70;58.20;;;;;;5069933;28;19925;-87
2021/04/25 00:03:09;;;;;;;;;;;7.70;58.10;;;;;;5064270;28;19932;-87
2021/04/25 00:05:34;;;;;;;;;;;7.70;58.20;;;;;;5063979;28;20007;-87
2021/04/25 00:08:00;;;;;;;;;;;7.70;58.00;;;;;;5052763;28;20393;-89
2021/04/25 00:10:26;;;;;;;;;;;7.70;58.00;;;;;;5053246;28;20298;-90
2021/04/25 00:12:51;;;;;;;;;;;7.70;57.80;;;;;;5051748;28;19913;-89
2021/04/25 00:15:20;;;;;;;;;;;7.80;57.70;;;;;;5068777;28;19933;-89
2021/04/25 00:17:45;;;;;;;;;;;7.90;57.70;;;;;;5071486;28;19917;-91
2021/04/25 00:20:11;;;;;;;;;;;7.80;57.60;;;;;;5034262;28;20410;-88
2021/04/25 00:22:37;;;;;;;;;;;7.80;57.60;;;;;;5068510;28;19913;-89
2021/04/25 00:25:03;;;;;;;;;;;7.80;57.70;;;;;;5050271;28;19909;-89
2021/04/25 00:27:28;;;;;;;;;;;7.90;57.80;;;;;;5048570;28;19919;-89
2021/04/25 00:29:54;;;;;;;;;;;7.90;57.70;;;;;;5052901;28;19908;-89
2021/04/25 00:32:20;;;;;;;;;;;7.90;57.90;;;;;;5070930;28;19916;-88
2021/04/25 00:34:45;;;;;;;;;;;7.90;57.90;;;;;;5057296;28;20345;-89
2021/04/25 00:37:11;;;;;;;;;;;7.90;57.80;;;;;;5074786;28;19917;-89
2021/04/25 00:39:36;;;;;;;;;;;7.90;58.00;;;;;;5075489;28;19912;-89
2021/04/25 00:42:02;;;;;;;;;;;7.80;58.10;;;;;;5066452;28;19913;-90
2021/04/25 00:44:27;;;;;;;;;;;7.80;58.10;;;;;;5045718;28;19909;-89
2021/04/25 00:46:53;;;;;;;;;;;7.80;58.10;;;;;;5068431;28;19916;-88
2021/04/25 00:49:18;;;;;;;;;;;7.70;58.00;;;;;;5054540;28;19917;-88
2021/04/25 00:51:44;;;;;;;;;;;7.70;58.10;;;;;;5065719;28;20007;-87
2021/04/25 00:54:09;;;;;;;;;;;7.70;58.20;;;;;;5061760;28;20023;-87
2021/04/25 00:56:35;;;;;;;;;;;7.50;58.30;;;;;;5070212;28;19928;-87
2021/04/25 00:59:00;;;;;;;;;;;7.50;58.40;;;;;;5058153;28;19979;-89
2021/04/25 01:01:26;;;;;;;;;;;7.40;58.70;;;;;;5054488;28;19908;-88
2021/04/25 01:03:52;;;;;;;;;;;7.40;58.80;;;;;;5062235;28;19995;-89
2021/04/25 01:06:18;;;;;;;;;;;7.30;58.90;;;;;;5075070;28;19953;-89
2021/04/25 01:08:43;;;;;;;;;;;7.30;59.10;;;;;;5056201;28;19999;-89
2021/04/25 01:11:09;;;;;;;;;;;7.30;59.20;;;;;;5074828;28;20642;-90
2021/04/25 01:13:35;;;;;;;;;;;7.20;59.20;;;;;;5073346;28;19913;-89
2021/04/25 01:16:00;;;;;;;;;;;7.10;59.20;;;;;;5069907;28;19931;-89
2021/04/25 01:18:26;;;;;;;;;;;7.10;59.20;;;;;;5072006;28;19912;-89
2021/04/25 01:21:01;;;;;;;;;;;7.10;59.50;;;;;;5074413;28;20001;-90
2021/04/25 01:23:27;;;;;;;;;;;7.00;59.50;;;;;;5057402;28;19908;-90
2021/04/25 01:25:53;;;;;;;;;;;6.90;59.50;;;;;;5074903;28;19909;-90
2021/04/25 01:28:19;;;;;;;;;;;6.90;59.60;;;;;;5068647;28;19908;-90
2021/04/25 01:30:44;;;;;;;;;;;6.80;59.60;;;;;;5069773;28;19939;-89
2021/04/25 01:33:10;;;;;;;;;;;6.80;59.60;;;;;;5067005;28;20563;-90
2021/04/25 01:35:35;;;;;;;;;;;6.70;59.50;;;;;;5056848;28;19920;-89
2021/04/25 01:38:00;;;;;;;;;;;6.70;59.50;;;;;;5056555;28;19923;-90
2021/04/25 01:40:27;;;;;;;;;;;6.60;59.50;;;;;;5057472;28;19909;-89
2021/04/25 01:42:54;;;;;;;;;;;6.60;59.70;;;;;;5053141;28;20006;-88
2021/04/25 01:45:20;;;;;;;;;;;6.60;59.70;;;;;;5053827;28;19975;-89
2021/04/25 01:47:47;;;;;;;;;;;6.50;59.70;;;;;;5072941;28;20007;-89
2021/04/25 01:50:13;;;;;;;;;;;6.50;59.70;;;;;;5069519;28;19962;-89
2021/04/25 01:52:39;;;;;;;;;;;6.50;59.60;;;;;;5072726;28;20389;-89
2021/04/25 01:55:05;;;;;;;;;;;6.50;59.50;;;;;;5073452;28;19991;-88
2021/04/25 01:57:31;;;;;;;;;;;6.50;59.50;;;;;;5074092;28;19916;-88
2021/04/25 01:59:56;;;;;;;;;;;6.40;59.50;;;;;;5059061;28;19966;-89
2021/04/25 02:02:22;;;;;;;;;;;6.40;59.40;;;;;;5074118;28;19919;-89
2021/04/25 02:04:47;;;;;;;;;;;6.40;59.50;;;;;;5056085;28;19963;-87
2021/04/25 02:07:13;;;;;;;;;;;6.40;59.60;;;;;;5060700;28;20011;-88
2021/04/25 02:09:38;;;;;;;;;;;6.40;59.60;;;;;;5053785;28;19931;-89
2021/04/25 02:12:04;;;;;;;;;;;6.30;59.50;;;;;;5064139;28;20383;-87
2021/04/25 02:14:30;;;;;;;;;;;6.30;59.50;;;;;;5073294;28;19919;-88
2021/04/25 02:16:55;;;;;;;;;;;6.30;59.50;;;;;;5072829;28;20375;-87
2021/04/25 02:19:21;;;;;;;;;;;6.20;59.40;;;;;;5054948;28;19909;-87
2021/04/25 02:21:46;;;;;;;;;;;6.30;59.50;;;;;;5064240;28;19913;-87
2021/04/25 02:24:12;;;;;;;;;;;6.30;59.40;;;;;;5063309;28;19917;-89
2021/04/25 02:26:37;;;;;;;;;;;6.30;59.40;;;;;;5062941;28;19967;-87
2021/04/25 02:29:03;;;;;;;;;;;6.30;59.40;;;;;;5054755;28;19912;-87
2021/04/25 02:31:28;;;;;;;;;;;6.30;59.30;;;;;;5069315;28;19921;-89
2021/04/25 02:33:54;;;;;;;;;;;6.20;59.30;;;;;;5052713;28;19916;-88
2021/04/25 02:36:19;;;;;;;;;;;6.20;59.30;;;;;;5063559;28;19935;-87
2021/04/25 02:38:45;;;;;;;;;;;6.20;59.40;;;;;;5061053;28;19959;-88
2021/04/25 02:41:10;;;;;;;;;;;6.20;59.40;;;;;;5063912;28;19918;-88
2021/04/25 02:43:36;;;;;;;;;;;6.20;59.40;;;;;;5072954;28;19912;-89
2021/04/25 02:46:01;;;;;;;;;;;6.20;59.40;;;;;;5073156;28;19913;-89
2021/04/25 02:48:27;;;;;;;;;;;6.10;59.50;;;;;;5063971;28;20676;-89
2021/04/25 02:50:52;;;;;;;;;;;6.10;59.70;;;;;;5070964;28;19908;-89
2021/04/25 02:53:18;;;;;;;;;;;6.20;59.80;;;;;;5063989;28;20348;-88
2021/04/25 02:55:43;;;;;;;;;;;6.20;59.60;;;;;;5070750;28;19965;-89
2021/04/25 02:58:10;;;;;;;;;;;6.20;59.40;;;;;;5046882;28;19923;-90
2021/04/25 03:00:36;;;;;;;;;;;6.20;59.30;;;;;;5068861;28;20429;-93
2021/04/25 03:03:01;;;;;;;;;;;6.20;59.30;;;;;;5070921;28;19908;-93
2021/04/25 03:05:27;;;;;;;;;;;6.20;59.40;;;;;;5074792;28;19912;-95
2021/04/25 03:07:54;;;;;;;;;;;6.20;59.40;;;;;;5078970;28;19924;-96
2021/04/25 03:10:20;;;;;;;;;;;6.20;59.30;;;;;;5069057;28;19929;-95
2021/04/25 03:12:48;;;;;;;;;;;6.30;59.10;;;;;;5069892;28;19935;-96
2021/04/25 03:15:15;;;;;;;;;;;6.30;59.10;;;;;;5056509;28;19909;-96
2021/04/25 03:17:41;;;;;;;;;;;6.30;59.00;;;;;;5075089;28;19952;-96
2021/04/25 03:20:11;;;;;;;;;;;6.30;58.90;;;;;;5076485;28;19919;-96
2021/04/25 03:22:37;;;;;;;;;;;6.40;58.90;;;;;;5078656;28;19916;-96
2021/04/25 03:25:08;;;;;;;;;;;6.30;58.90;;;;;;5084956;28;19911;-96
2021/04/25 03:27:34;;;;;;;;;;;6.30;58.80;;;;;;5090127;28;19908;-96
2021/04/25 03:29:59;;;;;;;;;;;6.30;58.70;;;;;;5075533;28;19917;-95
2021/04/25 03:32:25;;;;;;;;;;;6.40;58.70;;;;;;5073906;28;19912;-95
2021/04/25 03:34:51;;;;;;;;;;;6.30;58.90;;;;;;5056131;28;19972;-94
2021/04/25 03:37:17;;;;;;;;;;;6.30;58.80;;;;;;5069629;28;19924;-96
2021/04/25 03:39:43;;;;;;;;;;;6.30;58.80;;;;;;5058678;28;20531;-95
2021/04/25 03:42:08;;;;;;;;;;;6.40;58.90;;;;;;5073337;28;19919;-95
2021/04/25 03:44:34;;;;;;;;;;;6.40;58.80;;;;;;5073954;28;19908;-96
2021/04/25 03:46:59;;;;;;;;;;;6.40;58.80;;;;;;5076980;28;19913;-94
2021/04/25 03:49:25;;;;;;;;;;;6.30;59.00;;;;;;5079391;28;20023;-94
2021/04/25 03:51:52;;;;;;;;;;;6.40;58.90;;;;;;5079489;28;19909;-93
2021/04/25 03:54:17;;;;;;;;;;;6.40;58.80;;;;;;5088777;28;19913;-92
2021/04/25 03:56:43;;;;;;;;;;;6.50;58.60;;;;;;5076021;28;19920;-94
2021/04/25 03:59:09;;;;;;;;;;;6.50;58.50;;;;;;5073266;28;19908;-95
2021/04/25 04:01:36;;;;;;;;;;;6.60;58.40;;;;;;5073115;28;19909;-94
2021/04/25 04:04:02;;;;;;;;;;;6.60;58.20;;;;;;5059667;28;19917;-94
2021/04/25 04:06:27;;;;;;;;;;;6.60;58.10;;;;;;5070815;28;19952;-95
2021/04/25 04:08:52;;;;;;;;;;;6.70;58.10;;;;;;5045417;28;19913;-95
2021/04/25 04:11:18;;;;;;;;;;;6.70;57.90;;;;;;5052812;28;19985;-94
2021/04/25 04:13:43;;;;;;;;;;;6.70;58.00;;;;;;5072785;28;19908;-95
2021/04/25 04:16:09;;;;;;;;;;;6.70;58.10;;;;;;5059886;28;20433;-95
2021/04/25 04:18:34;;;;;;;;;;;6.80;58.10;;;;;;5070533;28;19923;-96
2021/04/25 04:21:00;;;;;;;;;;;6.80;57.90;;;;;;5072811;28;19916;-94
2021/04/25 04:23:26;;;;;;;;;;;6.80;58.00;;;;;;5058122;28;19968;-95
2021/04/25 04:25:51;;;;;;;;;;;6.80;58.00;;;;;;5053352;28;19916;-95
2021/04/25 04:28:16;;;;;;;;;;;6.80;57.90;;;;;;5072386;28;19915;-94
2021/04/25 04:30:42;;;;;;;;;;;6.80;57.80;;;;;;5073084;28;19909;-95
2021/04/25 04:33:08;;;;;;;;;;;6.80;57.80;;;;;;5072284;28;20001;-95
2021/04/25 04:35:33;;;;;;;;;;;6.80;58.00;;;;;;5052896;28;19916;-95
2021/04/25 04:37:59;;;;;;;;;;;6.70;58.30;;;;;;5052952;28;20051;-96
2021/04/25 04:40:24;;;;;;;;;;;6.70;58.30;;;;;;5035998;28;19916;-94
2021/04/25 04:42:50;;;;;;;;;;;6.60;58.30;;;;;;5055230;28;19966;-94
2021/04/25 04:45:16;;;;;;;;;;;6.60;58.20;;;;;;5056214;28;20366;-96
2021/04/25 04:47:42;;;;;;;;;;;6.60;58.20;;;;;;5072681;28;19925;-95
2021/04/25 04:50:07;;;;;;;;;;;6.60;58.10;;;;;;5055035;28;19995;-96
2021/04/25 04:52:33;;;;;;;;;;;6.70;57.90;;;;;;5069213;28;19952;-95
2021/04/25 04:54:58;;;;;;;;;;;6.70;57.70;;;;;;5072882;28;19956;-96
2021/04/25 04:57:24;;;;;;;;;;;6.70;57.70;;;;;;5055054;28;19967;-96
2021/04/25 04:59:49;;;;;;;;;;;6.60;57.60;;;;;;5072586;28;19912;-96
2021/04/25 05:02:15;;;;;;;;;;;6.60;57.60;;;;;;5073042;28;19936;-96
2021/04/25 05:04:40;;;;;;;;;;;6.60;57.50;;;;;;5072190;28;20003;-95
2021/04/25 05:07:06;;;;;;;;;;;6.60;57.50;;;;;;5072816;28;19989;-96
2021/04/25 05:09:31;;;;;;;;;;;6.60;57.70;;;;;;5055006;28;19916;-95
2021/04/25 05:11:57;;;;;;;;;;;6.60;57.60;;;;;;5071024;28;20505;-96
2021/04/25 05:14:24;;;;;;;;;;;6.70;57.60;;;;;;5070187;28;20290;-95
2021/04/25 05:16:50;;;;;;;;;;;6.60;57.60;;;;;;5072695;28;19912;-96
2021/04/25 05:19:15;;;;;;;;;;;6.70;57.60;;;;;;5072761;28;19908;-96
2021/04/25 05:21:41;;;;;;;;;;;6.80;57.40;;;;;;5076056;28;19908;-95
2021/04/25 05:24:08;;;;;;;;;;;6.80;57.10;;;;;;5077124;28;20003;-95
2021/04/25 05:26:34;;;;;;;;;;;6.80;57.00;;;;;;5077020;28;19916;-95
2021/04/25 05:28:59;;;;;;;;;;;6.80;57.00;;;;;;5075479;28;19916;-95
2021/04/25 05:31:25;;;;;;;;;;;6.90;57.00;;;;;;5051880;28;19920;-95
2021/04/25 05:33:50;;;;;;;;;;;6.90;56.90;;;;;;5073144;28;20374;-95
2021/04/25 05:36:16;;;;;;;;;;;6.90;56.90;;;;;;5076017;28;19916;-95
2021/04/25 05:38:41;;;;;;;;;;;6.90;56.90;;;;;;5088917;28;19909;-96
2021/04/25 05:41:07;;;;;;;;;;;6.90;56.90;;;;;;5071693;28;19920;-95
2021/04/25 05:43:32;;;;;;;;;;;6.80;56.80;;;;;;5062450;28;19919;-93
2021/04/25 05:45:58;;;;;;;;;;;6.80;56.90;;;;;;5072582;28;19991;-96
2021/04/25 05:48:23;;;;;;;;;;;6.90;56.90;;;;;;5076947;28;19920;-95
2021/04/25 05:50:49;;;;;;;;;;;6.90;56.80;;;;;;5076003;28;19916;-95
2021/04/25 05:53:14;;;;;;;;;;;6.90;56.70;;;;;;5076223;28;19909;-95
2021/04/25 05:55:40;;;;;;;;;;;7.00;56.60;;;;;;5065239;28;19974;-94
2021/04/25 05:58:06;;;;;;;;;;;6.90;56.70;;;;;;5055392;28;20018;-95
2021/04/25 06:00:33;;;;;;;;;;;6.90;56.90;;;;;;5074812;28;19908;-95
2021/04/25 06:02:58;;;;;;;;;;;6.90;56.90;;;;;;5057669;28;20012;-94
2021/04/25 06:05:24;;;;;;;;;;;6.90;56.80;;;;;;5075371;28;19939;-93
2021/04/25 06:07:51;;;;;;;;;;;6.90;56.80;;;;;;5057483;28;19919;-94
2021/04/25 06:10:17;;;;;;;;;;;6.90;56.90;;;;;;5074841;28;19969;-94
2021/04/25 06:12:43;;;;;;;;;;;6.90;56.80;;;;;;5074790;28;19908;-94
2021/04/25 06:15:08;;;;;;;;;;;7.00;56.70;;;;;;5074768;28;19912;-95
2021/04/25 06:17:34;;;;;;;;;;;7.00;56.70;;;;;;5074853;28;19916;-95
2021/04/25 06:20:00;;;;;;;;;;;7.10;56.60;;;;;;5075040;28;19913;-94
2021/04/25 06:22:25;;;;;;;;;;;7.10;56.40;;;;;;5068252;28;19963;-95
2021/04/25 06:24:55;;;;;;;;;;;7.20;56.30;;;;;;5055016;28;19909;-94
2021/04/25 06:27:21;;;;;;;;;;;7.30;56.40;;;;;;5054626;28;19917;-93
2021/04/25 06:29:46;;;;;;;;;;;7.30;56.10;;;;;;5054662;28;19908;-95
2021/04/25 06:32:12;;;;;;;;;;;7.30;56.10;;;;;;5054734;28;20063;-95
2021/04/25 06:34:37;;;;;;;;;;;7.30;56.10;;;;;;5056299;28;19919;-95
2021/04/25 06:37:03;;;;;;;;;;;7.40;56.00;;;;;;5072482;28;19924;-94
2021/04/25 06:39:28;;;;;;;;;;;7.40;55.80;;;;;;5067520;28;19919;-95
2021/04/25 06:41:54;;;;;;;;;;;7.40;55.80;;;;;;5079028;28;19908;-95
2021/04/25 06:44:19;;;;;;;;;;;7.30;55.80;;;;;;5070665;28;20003;-95
2021/04/25 06:46:45;;;;;;;;;;;7.30;55.80;;;;;;5078334;28;19934;-96
2021/04/25 06:49:10;;;;;;;;;;;7.40;55.80;;;;;;5078402;28;19995;-95
2021/04/25 06:51:36;;;;;;;;;;;7.30;55.70;;;;;;5079684;28;19923;-96
2021/04/25 06:54:01;;;;;;;;;;;7.40;55.70;;;;;;5075380;28;19958;-95
2021/04/25 06:56:27;;;;;;;;;;;7.40;55.60;;;;;;5057866;28;20390;-94
2021/04/25 07:01:30;;;;;;;;;;;7.30;55.70;;;;;;5208031;22;20298;-95
2021/04/25 07:03:56;;;;;;;;;;;7.50;55.60;;;;;;5092726;28;19912;-94
2021/04/25 07:06:21;;;;;;;;;;;7.50;55.50;;;;;;5085633;28;19931;-95
2021/04/25 07:08:47;;;;;;;;;;;7.60;55.40;;;;;;5085284;28;20318;-93
2021/04/25 07:11:15;;;;;;;;;;;7.60;55.10;;;;;;5063118;28;20065;-96
2021/04/25 07:13:41;;;;;;;;;;;7.70;55.10;;;;;;5081453;28;20305;-94
2021/04/25 07:16:07;;;;;;;;;;;7.70;54.90;;;;;;5084321;28;19920;-95
2021/04/25 07:18:32;;;;;;;;;;;7.70;54.80;;;;;;5084827;28;19916;-96
2021/04/25 07:20:58;;;;;;;;;;;7.70;54.90;;;;;;5057562;28;20180;-96
2021/04/25 07:23:24;;;;;;;;;;;7.70;54.90;;;;;;5060010;28;19912;-96
2021/04/25 07:25:54;;;;;;;;;;;7.70;54.80;;;;;;5083282;28;19918;-96
2021/04/25 07:28:20;;;;;;;;;;;7.80;54.70;;;;;;5082233;28;19918;-96
2021/04/25 07:30:49;;;;;;;;;;;7.80;54.50;;;;;;5086313;28;19916;-96
2021/04/25 07:33:16;;;;;;;;;;;7.90;54.50;;;;;;5079047;28;19916;-95
2021/04/25 07:35:42;;;;;;;;;;;7.90;54.60;;;;;;5064055;28;19912;-96
2021/04/25 07:38:08;;;;;;;;;;;7.80;54.70;;;;;;5069299;28;19913;-94
2021/04/25 07:40:34;;;;;;;;;;;7.90;54.80;;;;;;5050257;28;19920;-96
2021/04/25 07:42:59;;;;;;;;;;;7.90;55.30;;;;;;5066269;28;19908;-93
2021/04/25 07:45:25;;;;;;;;;;;7.90;54.70;;;;;;5063820;28;19959;-96
2021/04/25 07:47:50;;;;;;;;;;;7.90;54.50;;;;;;5067192;28;19912;-94
2021/04/25 07:50:16;;;;;;;;;;;7.90;54.60;;;;;;5047465;28;19916;-95
2021/04/25 07:52:42;;;;;;;;;;;8.00;54.60;;;;;;5059539;28;19908;-96
2021/04/25 07:55:08;;;;;;;;;;;8.10;54.60;;;;;;5065458;28;19908;-93
2021/04/25 07:57:33;;;;;;;;;;;8.10;54.30;;;;;;5070309;28;19921;-95
2021/04/25 07:59:59;;;;;;;;;;;8.10;54.20;;;;;;5055417;28;19952;-94
2021/04/25 08:02:24;;;;;;;;;;;8.20;54.10;;;;;;5065967;28;19958;-95
2021/04/25 08:04:50;;;;;;;;;;;8.30;54.10;;;;;;5071261;28;19963;-94
2021/04/25 08:07:16;;;;;;;;;;;8.30;54.00;;;;;;5073158;28;20418;-95
2021/04/25 08:09:43;;;;;;;;;;;8.30;53.80;;;;;;5065528;28;19913;-95
2021/04/25 08:12:09;;;;;;;;;;;8.30;53.60;;;;;;5065028;28;19912;-96
2021/04/25 08:14:35;;;;;;;;;;;8.40;53.50;;;;;;5071874;28;19919;-96
2021/04/25 08:17:00;;;;;;;;;;;8.50;53.40;;;;;;5051045;28;20382;-95
2021/04/25 08:19:26;;;;;;;;;;;8.60;53.20;;;;;;5064888;28;19951;-95
2021/04/25 08:21:51;;;;;;;;;;;8.70;53.10;;;;;;5065902;28;19928;-96
2021/04/25 08:24:17;;;;;;;;;;;8.80;52.90;;;;;;5050573;28;19947;-96
2021/04/25 08:26:42;;;;;;;;;;;8.80;52.70;;;;;;5067019;28;19950;-95
2021/04/25 08:29:08;;;;;;;;;;;8.70;52.60;;;;;;5065883;28;19917;-95
2021/04/25 08:31:33;;;;;;;;;;;8.70;52.40;;;;;;5066465;28;19936;-94
2021/04/25 08:33:59;;;;;;;;;;;8.50;52.50;;;;;;5062552;28;19917;-95
2021/04/25 08:36:24;;;;;;;;;;;8.40;52.90;;;;;;5049624;28;19920;-95
2021/04/25 08:38:50;;;;;;;;;;;8.50;53.00;;;;;;5066544;28;19916;-96
2021/04/25 08:41:16;;;;;;;;;;;8.70;53.10;;;;;;5068071;28;19913;-96
2021/04/25 08:43:42;;;;;;;;;;;8.70;52.90;;;;;;5070682;28;20311;-96
2021/04/25 08:46:12;;;;;;;;;;;8.80;52.70;;;;;;5073854;28;19905;-96
2021/04/25 08:48:47;;;;;;;;;;;8.90;52.60;;;;;;5059371;28;19900;-96
2021/04/25 08:51:20;;;;;;;;;;;9.00;52.40;;;;;;5067590;28;19916;-96
2021/04/25 08:53:46;;;;;;;;;;;9.10;52.30;;;;;;5073329;28;20422;-96
2021/04/25 08:56:11;;;;;;;;;;;9.20;52.20;;;;;;5049762;28;20030;-96
2021/04/25 08:58:37;;;;;;;;;;;9.30;51.90;;;;;;5070776;28;19974;-96
2021/04/25 09:01:03;;;;;;;;;;;9.30;51.20;;;;;;5074964;28;19920;-96
2021/04/25 09:03:29;;;;;;;;;;;9.40;51.30;;;;;;5071955;28;19915;-96
2021/04/25 09:05:58;;;;;;;;;;;9.40;51.80;;;;;;5074814;28;19908;-96
2021/04/25 09:16:11;;;;;;;;;;;9.40;51.30;;;;;;5711749;22;19910;-96
2021/04/25 09:18:36;;;;;;;;;;;9.40;51.10;;;;;;5037780;28;19917;-96
2021/04/25 09:23:31;;;;;;;;;;;9.60;50.80;;;;;;5217971;22;19923;-96
2021/04/25 09:26:00;;;;;;;;;;;9.70;50.60;;;;;;5104755;28;19940;-96
2021/04/25 09:28:26;;;;;;;;;;;9.90;50.50;;;;;;5085813;28;19917;-96
2021/04/25 09:33:28;;;;;;;;;;;10.20;49.90;;;;;;5600371;22;19931;-96
2021/04/25 09:35:54;;;;;;;;;;;10.10;49.50;;;;;;5130776;27;20010;-96
2021/04/25 09:38:20;;;;;;;;;;;10.20;49.50;;;;;;5109608;28;19920;-95
2021/04/25 09:40:49;;;;;;;;;;;10.20;49.40;;;;;;5106202;28;19919;-96
2021/04/25 09:43:15;;;;;;;;;;;10.10;48.90;;;;;;5112735;28;19950;-95
2021/04/25 09:45:54;;;;;;;;;;;10.00;49.20;;;;;;5094955;28;20317;-95
2021/04/25 09:48:21;;;;;;;;;;;10.10;49.30;;;;;;5100343;28;19916;-96
2021/04/25 09:51:03;;;;;;;;;;;10.20;48.90;;;;;;5120819;28;19912;-96
2021/04/25 09:53:28;;;;;;;;;;;10.10;48.70;;;;;;5137781;28;19908;-96
2021/04/25 09:55:57;;;;;;;;;;;10.10;48.90;;;;;;5132360;28;19916;-94
2021/04/25 09:58:23;;;;;;;;;;;10.10;48.90;;;;;;5131953;28;19918;-96
2021/04/25 10:00:50;;;;;;;;;;;10.30;48.80;;;;;;5118034;28;19912;-96
2021/04/25 10:03:19;;;;;;;;;;;10.40;48.90;;;;;;5121177;28;20017;-96
2021/04/25 10:05:56;;;;;;;;;;;10.40;48.70;;;;;;5124789;28;19912;-96
2021/04/25 10:08:28;;;;;;;;;;;10.20;48.20;;;;;;5125340;28;19935;-96
2021/04/25 10:10:53;;;;;;;;;;;10.10;48.70;;;;;;5123863;28;19912;-96
2021/04/25 10:13:19;;;;;;;;;;;9.80;48.70;;;;;;5098084;28;19908;-96
2021/04/25 10:15:44;;;;;;;;;;;9.80;49.10;;;;;;5116939;28;20310;-96
2021/04/25 10:18:10;;;;;;;;;;;10.00;49.30;;;;;;5115730;28;19920;-96
2021/04/25 10:20:35;;;;;;;;;;;10.00;48.90;;;;;;5108574;28;19920;-96
2021/04/25 10:23:02;;;;;;;;;;;10.20;48.80;;;;;;5116753;28;19961;-96
2021/04/25 10:25:35;;;;;;;;;;;10.30;48.40;;;;;;5126990;27;19914;-96
2021/04/25 10:28:02;;;;;;;;;;;10.40;48.40;;;;;;5114022;28;19912;-96
2021/04/25 10:30:30;;;;;;;;;;;10.50;48.20;;;;;;5115313;28;19916;-96
2021/04/25 10:32:57;;;;;;;;;;;10.40;48.20;;;;;;5112345;28;19966;-95
2021/04/25 10:35:24;;;;;;;;;;;10.50;48.00;;;;;;5108238;28;20007;-94
2021/04/25 10:37:50;;;;;;;;;;;10.60;48.20;;;;;;5091316;28;19934;-95
2021/04/25 10:40:20;;;;;;;;;;;10.80;48.10;;;;;;5090990;28;19927;-94
2021/04/25 10:42:52;;;;;;;;;;;11.00;47.90;;;;;;5091413;28;20002;-95
2021/04/25 10:45:18;;;;;;;;;;;11.20;47.60;;;;;;5110840;28;19912;-96
2021/04/25 10:47:45;;;;;;;;;;;11.20;47.10;;;;;;5097785;28;19912;-95
2021/04/25 10:50:13;;;;;;;;;;;11.20;46.90;;;;;;5093440;28;19992;-95
2021/04/25 10:52:39;;;;;;;;;;;11.30;47.10;;;;;;5115706;28;20362;-94
2021/04/25 10:55:07;;;;;;;;;;;11.50;46.80;;;;;;5115869;28;20007;-94
2021/04/25 10:57:33;;;;;;;;;;;11.40;46.00;;;;;;5100543;28;19942;-93
2021/04/25 11:00:17;;;;;;;;;;;11.30;46.30;;;;;;5097938;28;19912;-95
2021/04/25 11:02:46;;;;;;;;;;;11.50;46.50;;;;;;5112922;28;19926;-94
2021/04/25 11:05:15;;;;;;;;;;;11.60;46.40;;;;;;5087407;28;19985;-95
2021/04/25 11:07:41;;;;;;;;;;;11.70;45.90;;;;;;5089954;28;19923;-94
2021/04/25 11:10:08;;;;;;;;;;;11.60;45.70;;;;;;5104004;28;19977;-95
2021/04/25 11:12:38;;;;;;;;;;;11.80;46.00;;;;;;5092124;28;19929;-94
2021/04/25 11:15:04;;;;;;;;;;;11.90;45.80;;;;;;5107018;28;19912;-94
2021/04/25 11:17:31;;;;;;;;;;;12.00;45.10;;;;;;5110182;28;19966;-94
2021/04/25 11:19:56;;;;;;;;;;;12.00;45.30;;;;;;5110675;28;20467;-96
2021/04/25 11:22:41;;;;;;;;;;;12.00;45.20;;;;;;5098893;28;20003;-95
2021/04/25 11:25:26;;;;;;;;;;;11.90;44.40;;;;;;5093116;28;19979;-96
2021/04/25 11:27:51;;;;;;;;;;;11.70;45.10;;;;;;5125874;28;20185;-96
2021/04/25 11:30:33;;;;;;;;;;;11.80;44.80;;;;;;5121318;28;19983;-96
2021/04/25 11:33:18;;;;;;;;;;;12.00;44.60;;;;;;5124411;28;19940;-96
2021/04/25 11:35:44;;;;;;;;;;;12.00;43.90;;;;;;5114606;28;20230;-96
2021/04/25 11:38:11;;;;;;;;;;;11.50;44.40;;;;;;5111774;28;19920;-96
2021/04/25 11:40:36;;;;;;;;;;;11.50;45.10;;;;;;5092080;28;19912;-96
2021/04/25 11:43:02;;;;;;;;;;;11.80;45.50;;;;;;5110491;28;19916;-96
2021/04/25 11:45:29;;;;;;;;;;;11.90;44.60;;;;;;5098175;28;19957;-96
2021/04/25 11:47:55;;;;;;;;;;;11.90;44.50;;;;;;5100105;28;19912;-95
2021/04/25 11:50:25;;;;;;;;;;;11.80;44.30;;;;;;5096677;28;19959;-96
2021/04/25 11:52:50;;;;;;;;;;;11.90;44.60;;;;;;5128431;28;19892;-96
2021/04/25 11:55:18;;;;;;;;;;;12.20;44.40;;;;;;5132783;28;20006;-96
2021/04/25 11:57:45;;;;;;;;;;;12.40;43.60;;;;;;5128743;28;19922;-96
2021/04/25 12:00:25;;;;;;;;;;;12.20;42.80;;;;;;5100340;28;19922;-96
2021/04/25 12:02:52;;;;;;;;;;;12.10;43.70;;;;;;5113955;28;19915;-96
2021/04/25 12:05:20;;;;;;;;;;;12.50;44.00;;;;;;5120448;28;20007;-96
2021/04/25 12:07:46;;;;;;;;;;;12.60;43.50;;;;;;5129789;28;19919;-96
2021/04/25 12:10:12;;;;;;;;;;;12.60;43.40;;;;;;5106633;28;19904;-96
2021/04/25 12:12:53;;;;;;;;;;;12.60;43.50;;;;;;5129771;28;19904;-95
2021/04/25 12:15:19;;;;;;;;;;;12.60;43.40;;;;;;5123525;28;19915;-96
2021/04/25 12:17:55;;;;;;;;;;;12.70;43.20;;;;;;5129865;28;19931;-96
2021/04/25 12:20:21;;;;;;;;;;;12.90;43.10;;;;;;5125708;28;19908;-96
2021/04/25 12:22:47;;;;;;;;;;;13.10;42.80;;;;;;5094477;28;19916;-96
2021/04/25 12:25:13;;;;;;;;;;;13.20;42.30;;;;;;5097976;28;19912;-96
2021/04/25 12:38:13;;;;;;;;;;;13.50;41.30;;;;;;6188780;22;19915;-96
2021/04/25 12:40:38;;;;;;;;;;;13.60;41.50;;;;;;5107843;22;19915;-96
2021/04/25 12:43:14;;;;;;;;;;;13.40;41.10;;;;;;5087716;28;19916;-96
2021/04/25 12:45:43;;;;;;;;;;;13.60;41.30;;;;;;5076366;28;19934;-96
2021/04/25 12:48:22;;;;;;;;;;;13.60;40.60;;;;;;5049244;28;19915;-96
2021/04/25 12:51:00;;;;;;;;;;;13.60;41.30;;;;;;5070344;28;20000;-96
2021/04/25 12:53:25;;;;;;;;;;;13.90;41.40;;;;;;5066042;28;20047;-96
2021/04/25 12:55:50;;;;;;;;;;;14.10;41.30;;;;;;5069990;28;20371;-96
2021/04/25 12:58:16;;;;;;;;;;;14.10;40.80;;;;;;5072264;28;19928;-96
2021/04/25 13:03:33;;;;;;;;;;;14.20;40.70;;;;;;5816608;22;19924;-96
2021/04/25 13:06:01;;;;;;;;;;;14.30;40.40;;;;;;5213857;22;19925;-96
2021/04/25 13:08:33;;;;;;;;;;;14.40;40.00;;;;;;5115807;28;19938;-96
2021/04/25 13:10:59;;;;;;;;;;;14.50;40.10;;;;;;5104879;28;19912;-96
2021/04/25 13:13:24;;;;;;;;;;;14.50;40.00;;;;;;5102502;28;19962;-95
2021/04/25 13:15:51;;;;;;;;;;;14.50;39.60;;;;;;5083398;28;19908;-96
2021/04/25 13:18:17;;;;;;;;;;;14.50;39.40;;;;;;5118797;28;19920;-96
2021/04/25 13:20:52;;;;;;;;;;;14.40;39.80;;;;;;5120795;28;19908;-94
2021/04/25 13:23:22;;;;;;;;;;;14.30;39.80;;;;;;5100578;28;20324;-95
2021/04/25 13:25:52;;;;;;;;;;;14.30;39.90;;;;;;5120309;28;19984;-95
2021/04/25 13:28:28;;;;;;;;;;;14.50;40.00;;;;;;5104512;28;19970;-95
2021/04/25 13:31:01;;;;;;;;;;;14.60;39.50;;;;;;5091396;28;19919;-96
2021/04/25 13:33:28;;;;;;;;;;;14.40;39.60;;;;;;5105663;27;19919;-94
2021/04/25 13:35:55;;;;;;;;;;;14.30;39.20;;;;;;5101601;28;19927;-95
2021/04/25 13:38:22;;;;;;;;;;;14.40;39.30;;;;;;5117330;28;19919;-94
2021/04/25 13:40:48;;;;;;;;;;;14.60;39.10;;;;;;5095020;28;19920;-95
2021/04/25 13:43:14;;;;;;;;;;;14.70;38.80;;;;;;5115538;28;19923;-95
2021/04/25 13:45:40;;;;;;;;;;;14.90;38.60;;;;;;5119280;28;19908;-91
2021/04/25 13:48:06;;;;;;;;;;;15.10;38.60;;;;;;5114556;28;19912;-91
2021/04/25 13:50:31;;;;;;;;;;;15.10;36.70;;;;;;5115076;28;19916;-91
2021/04/25 13:52:56;;;;;;;;;;;15.20;37.60;;;;;;5113270;28;19958;-95
2021/04/25 13:55:22;;;;;;;;;;;15.20;37.50;;;;;;5117017;28;20394;-96
2021/04/25 13:57:50;;;;;;;;;;;15.30;37.60;;;;;;5098383;28;19920;-95
2021/04/25 14:00:16;;;;;;;;;;;15.20;37.20;;;;;;5114079;28;19913;-95
2021/04/25 14:02:42;;;;;;;;;;;15.30;37.50;;;;;;5114164;28;20282;-95
2021/04/25 14:05:08;;;;;;;;;;;15.50;37.50;;;;;;5118350;28;19919;-95
2021/04/25 14:07:33;;;;;;;;;;;15.60;37.40;;;;;;5113508;28;19920;-94
2021/04/25 14:09:59;;;;;;;;;;;15.50;36.20;;;;;;5113900;27;19911;-95
2021/04/25 14:12:24;;;;;;;;;;;15.30;36.70;;;;;;5110590;28;19998;-96
2021/04/25 14:14:50;;;;;;;;;;;15.40;36.80;;;;;;5112582;28;19919;-95
2021/04/25 14:17:15;;;;;;;;;;;15.30;36.60;;;;;;5116139;27;19923;-94
2021/04/25 14:19:41;;;;;;;;;;;15.30;36.60;;;;;;5095499;28;20310;-95
2021/04/25 14:22:06;;;;;;;;;;;15.30;36.60;;;;;;5111210;28;19969;-93
2021/04/25 14:24:32;;;;;;;;;;;15.30;36.30;;;;;;5115304;28;20358;-94
2021/04/25 14:26:58;;;;;;;;;;;15.30;36.60;;;;;;5094773;28;19912;-94
2021/04/25 14:29:24;;;;;;;;;;;15.50;36.80;;;;;;5096680;28;19911;-95
2021/04/25 14:31:49;;;;;;;;;;;15.60;36.50;;;;;;5115431;28;19912;-94
2021/04/25 14:34:20;;;;;;;;;;;15.70;36.30;;;;;;5095256;28;19965;-96
2021/04/25 14:36:55;;;;;;;;;;;15.80;36.50;;;;;;5116651;28;19920;-95
2021/04/25 14:39:21;;;;;;;;;;;16.00;36.60;;;;;;5094640;28;19911;-95
2021/04/25 14:41:46;;;;;;;;;;;16.10;35.90;;;;;;5096632;28;19915;-96
2021/04/25 14:44:14;;;;;;;;;;;16.00;36.10;;;;;;5112896;28;19912;-96
2021/04/25 14:46:39;;;;;;;;;;;16.00;36.20;;;;;;5115028;28;19998;-96
2021/04/25 14:49:05;;;;;;;;;;;15.80;35.90;;;;;;5110253;28;19952;-95
2021/04/25 14:51:32;;;;;;;;;;;15.50;35.50;;;;;;5105065;28;19911;-96